sensor_id;sensor_type;location;lat;lon;timestamp;P1;durP1;ratioP1;P2;durP2;ratioP2
51226;SDS011;42714;48.260;10.980;2023-05-10T00:03:36;6.5;;;3.1;;
51226;SDS011;42714;48.260;10.980;2023-05-10T00:08:36;4.1;;;2.3;;
51226;SDS011;42714;48.260;10.980;2023-05-10T00:13:36;4.5;;;2.2;;
51226;SDS011;42714;48.260;10.980;2023-05-10T00:18:36;4.7;;;2.3;;
51226;SDS011;42714;48.260;10.980;2023-05-10T00:23:36;3.3;;;1.8;;
51226;SDS011;42714;48.260;10.980;2023-05-10T00:28:36;4.9;;;1.8;;
51226;SDS011;42714;48.260;10.980;2023-05-10T00:33:36;4.1;;;1.8;;
51226;SDS011;42714;48.260;10.980;2023-05-10T00:38:36;3.7;;;1.6;;
51226;SDS011;42714;48.260;10.980;2023-05-10T00:43:36;2.9;;;1.3;;
51226;SDS011;42714;48.260;10.980;2023-05-10T00:48:36;4.4;;;1.3;;
51226;SDS011;42714;48.260;10.980;2023-05-10T00:53:36;8.1;;;1.4;;
51226;SDS011;42714;48.260;10.980;2023-05-10T00:58:36;3.0;;;1.1;;
51226;SDS011;42714;48.260;10.980;2023-05-10T01:03:36;3.4;;;1.1;;
51226;SDS011;42714;48.260;10.980;2023-05-10T01:08:36;2.3;;;0.8;;
51226;SDS011;42714;48.260;10.980;2023-05-10T01:13:37;2.9;;;0.9;;
51226;SDS011;42714;48.260;10.980;2023-05-10T01:18:38;5.3;;;0.8;;
51226;SDS011;42714;48.260;10.980;2023-05-10T01:24:29;2.1;;;0.8;;
51226;SDS011;42714;48.260;10.980;2023-05-10T01:33:39;2.3;;;0.9;;
51226;SDS011;42714;48.260;10.980;2023-05-10T01:43:38;3.1;;;1.2;;
51226;SDS011;42714;48.260;10.980;2023-05-10T01:48:37;3.3;;;1.1;;
51226;SDS011;42714;48.260;10.980;2023-05-10T01:53:36;3.1;;;1.1;;
51226;SDS011;42714;48.260;10.980;2023-05-10T01:58:36;2.4;;;1.1;;
51226;SDS011;42714;48.260;10.980;2023-05-10T02:03:36;3.6;;;1.0;;
51226;SDS011;42714;48.260;10.980;2023-05-10T02:08:36;2.6;;;0.9;;
51226;SDS011;42714;48.260;10.980;2023-05-10T02:13:36;2.8;;;1.0;;
51226;SDS011;42714;48.260;10.980;2023-05-10T02:18:36;2.1;;;0.9;;
51226;SDS011;42714;48.260;10.980;2023-05-10T02:23:36;2.5;;;0.8;;
51226;SDS011;42714;48.260;10.980;2023-05-10T02:28:36;3.4;;;0.9;;
51226;SDS011;42714;48.260;10.980;2023-05-10T02:33:37;2.3;;;1.1;;
51226;SDS011;42714;48.260;10.980;2023-05-10T02:38:36;3.0;;;1.2;;
51226;SDS011;42714;48.260;10.980;2023-05-10T02:43:36;2.8;;;1.2;;
51226;SDS011;42714;48.260;10.980;2023-05-10T02:48:36;3.0;;;1.2;;
51226;SDS011;42714;48.260;10.980;2023-05-10T02:53:36;3.0;;;1.6;;
51226;SDS011;42714;48.260;10.980;2023-05-10T02:58:36;2.7;;;1.5;;
51226;SDS011;42714;48.260;10.980;2023-05-10T03:03:36;2.6;;;1.2;;
51226;SDS011;42714;48.260;10.980;2023-05-10T03:08:36;2.4;;;1.2;;
51226;SDS011;42714;48.260;10.980;2023-05-10T03:13:39;3.9;;;1.2;;
51226;SDS011;42714;48.260;10.980;2023-05-10T03:18:38;4.3;;;1.0;;
51226;SDS011;42714;48.260;10.980;2023-05-10T03:23:40;5.1;;;1.0;;
51226;SDS011;42714;48.260;10.980;2023-05-10T03:28:36;1.9;;;0.8;;
51226;SDS011;42714;48.260;10.980;2023-05-10T03:33:45;3.6;;;1.4;;
51226;SDS011;42714;48.260;10.980;2023-05-10T03:38:36;3.2;;;1.2;;
51226;SDS011;42714;48.260;10.980;2023-05-10T03:43:36;2.9;;;1.2;;
51226;SDS011;42714;48.260;10.980;2023-05-10T03:48:36;3.2;;;1.3;;
51226;SDS011;42714;48.260;10.980;2023-05-10T03:53:36;4.0;;;1.3;;
51226;SDS011;42714;48.260;10.980;2023-05-10T03:58:36;4.0;;;1.1;;
51226;SDS011;42714;48.260;10.980;2023-05-10T04:03:36;1.6;;;0.5;;
51226;SDS011;42714;48.260;10.980;2023-05-10T04:08:36;2.1;;;0.4;;
51226;SDS011;42714;48.260;10.980;2023-05-10T04:13:36;4.2;;;0.5;;
51226;SDS011;42714;48.260;10.980;2023-05-10T04:18:36;2.0;;;0.6;;
51226;SDS011;42714;48.260;10.980;2023-05-10T04:23:36;1.8;;;0.4;;
51226;SDS011;42714;48.260;10.980;2023-05-10T04:28:36;2.4;;;0.3;;
51226;SDS011;42714;48.260;10.980;2023-05-10T04:33:36;1.3;;;0.2;;
51226;SDS011;42714;48.260;10.980;2023-05-10T04:38:36;2.8;;;0.4;;
51226;SDS011;42714;48.260;10.980;2023-05-10T04:43:36;2.1;;;0.3;;
51226;SDS011;42714;48.260;10.980;2023-05-10T04:48:36;8.3;;;0.9;;
51226;SDS011;42714;48.260;10.980;2023-05-10T04:53:36;5.5;;;0.5;;
51226;SDS011;42714;48.260;10.980;2023-05-10T04:58:36;3.2;;;0.5;;
51226;SDS011;42714;48.260;10.980;2023-05-10T05:03:36;2.6;;;0.2;;
51226;SDS011;42714;48.260;10.980;2023-05-10T05:08:36;5.4;;;0.5;;
51226;SDS011;42714;48.260;10.980;2023-05-10T05:13:36;2.3;;;0.5;;
51226;SDS011;42714;48.260;10.980;2023-05-10T05:18:36;1.6;;;0.4;;
51226;SDS011;42714;48.260;10.980;2023-05-10T05:23:36;2.0;;;0.6;;
51226;SDS011;42714;48.260;10.980;2023-05-10T05:28:36;4.8;;;0.6;;
51226;SDS011;42714;48.260;10.980;2023-05-10T05:33:36;4.1;;;0.4;;
51226;SDS011;42714;48.260;10.980;2023-05-10T05:38:36;5.7;;;0.6;;
51226;SDS011;42714;48.260;10.980;2023-05-10T05:43:36;3.4;;;0.5;;
51226;SDS011;42714;48.260;10.980;2023-05-10T05:48:36;2.2;;;0.5;;
51226;SDS011;42714;48.260;10.980;2023-05-10T05:53:36;2.4;;;0.7;;
51226;SDS011;42714;48.260;10.980;2023-05-10T05:58:36;2.3;;;0.9;;
51226;SDS011;42714;48.260;10.980;2023-05-10T06:03:36;3.6;;;0.9;;
51226;SDS011;42714;48.260;10.980;2023-05-10T06:08:36;4.2;;;0.8;;
51226;SDS011;42714;48.260;10.980;2023-05-10T06:13:36;4.2;;;0.6;;
51226;SDS011;42714;48.260;10.980;2023-05-10T06:18:36;2.9;;;0.6;;
51226;SDS011;42714;48.260;10.980;2023-05-10T06:23:36;4.3;;;0.7;;
51226;SDS011;42714;48.260;10.980;2023-05-10T06:28:36;3.2;;;0.9;;
51226;SDS011;42714;48.260;10.980;2023-05-10T06:33:36;2.7;;;0.7;;
51226;SDS011;42714;48.260;10.980;2023-05-10T06:38:36;4.2;;;0.8;;
51226;SDS011;42714;48.260;10.980;2023-05-10T06:43:36;3.1;;;0.6;;
51226;SDS011;42714;48.260;10.980;2023-05-10T06:48:36;2.1;;;0.6;;
51226;SDS011;42714;48.260;10.980;2023-05-10T06:53:36;3.1;;;0.6;;
51226;SDS011;42714;48.260;10.980;2023-05-10T06:58:36;1.3;;;0.4;;
51226;SDS011;42714;48.260;10.980;2023-05-10T07:03:36;2.3;;;0.6;;
51226;SDS011;42714;48.260;10.980;2023-05-10T07:08:36;4.4;;;0.5;;
51226;SDS011;42714;48.260;10.980;2023-05-10T07:13:36;6.1;;;0.5;;
51226;SDS011;42714;48.260;10.980;2023-05-10T07:18:36;2.3;;;0.5;;
51226;SDS011;42714;48.260;10.980;2023-05-10T07:23:36;6.5;;;0.6;;
51226;SDS011;42714;48.260;10.980;2023-05-10T07:28:36;6.2;;;1.0;;
51226;SDS011;42714;48.260;10.980;2023-05-10T07:33:36;6.0;;;0.5;;
51226;SDS011;42714;48.260;10.980;2023-05-10T07:38:36;2.0;;;0.4;;
51226;SDS011;42714;48.260;10.980;2023-05-10T07:43:36;3.4;;;0.5;;
51226;SDS011;42714;48.260;10.980;2023-05-10T07:48:36;2.3;;;0.3;;
51226;SDS011;42714;48.260;10.980;2023-05-10T07:53:37;9.0;;;0.6;;
51226;SDS011;42714;48.260;10.980;2023-05-10T07:58:36;2.8;;;0.3;;
51226;SDS011;42714;48.260;10.980;2023-05-10T08:03:36;1.6;;;0.3;;
51226;SDS011;42714;48.260;10.980;2023-05-10T08:08:36;4.3;;;0.5;;
51226;SDS011;42714;48.260;10.980;2023-05-10T08:13:36;1.3;;;0.4;;
51226;SDS011;42714;48.260;10.980;2023-05-10T08:18:37;8.7;;;0.4;;
51226;SDS011;42714;48.260;10.980;2023-05-10T08:23:36;3.0;;;0.3;;
51226;SDS011;42714;48.260;10.980;2023-05-10T08:28:36;2.8;;;0.4;;
51226;SDS011;42714;48.260;10.980;2023-05-10T08:33:36;3.8;;;0.5;;
51226;SDS011;42714;48.260;10.980;2023-05-10T08:38:37;4.0;;;0.5;;
51226;SDS011;42714;48.260;10.980;2023-05-10T08:43:36;6.6;;;0.6;;
51226;SDS011;42714;48.260;10.980;2023-05-10T08:48:36;3.8;;;0.4;;
51226;SDS011;42714;48.260;10.980;2023-05-10T08:53:36;4.2;;;0.5;;
51226;SDS011;42714;48.260;10.980;2023-05-10T08:58:37;7.5;;;0.6;;
51226;SDS011;42714;48.260;10.980;2023-05-10T09:03:38;5.0;;;0.4;;
51226;SDS011;42714;48.260;10.980;2023-05-10T09:08:36;3.5;;;0.5;;
51226;SDS011;42714;48.260;10.980;2023-05-10T09:13:36;2.1;;;0.3;;
51226;SDS011;42714;48.260;10.980;2023-05-10T09:18:36;4.7;;;0.3;;
51226;SDS011;42714;48.260;10.980;2023-05-10T09:23:36;3.9;;;0.8;;
51226;SDS011;42714;48.260;10.980;2023-05-10T09:33:46;1.9;;;0.3;;
51226;SDS011;42714;48.260;10.980;2023-05-10T09:43:37;3.6;;;0.4;;
51226;SDS011;42714;48.260;10.980;2023-05-10T09:48:40;5.3;;;0.4;;
51226;SDS011;42714;48.260;10.980;2023-05-10T09:53:37;3.1;;;0.4;;
51226;SDS011;42714;48.260;10.980;2023-05-10T09:58:37;15.5;;;0.8;;
51226;SDS011;42714;48.260;10.980;2023-05-10T10:03:41;2.7;;;0.5;;
51226;SDS011;42714;48.260;10.980;2023-05-10T10:08:37;4.6;;;0.6;;
51226;SDS011;42714;48.260;10.980;2023-05-10T10:13:37;10.3;;;1.1;;
51226;SDS011;42714;48.260;10.980;2023-05-10T10:18:37;4.0;;;0.5;;
51226;SDS011;42714;48.260;10.980;2023-05-10T10:23:37;7.2;;;0.7;;
51226;SDS011;42714;48.260;10.980;2023-05-10T10:28:40;3.1;;;0.5;;
51226;SDS011;42714;48.260;10.980;2023-05-10T10:38:38;6.3;;;0.4;;
51226;SDS011;42714;48.260;10.980;2023-05-10T10:43:37;3.1;;;0.4;;
51226;SDS011;42714;48.260;10.980;2023-05-10T10:48:37;2.0;;;0.4;;
51226;SDS011;42714;48.260;10.980;2023-05-10T10:53:37;5.1;;;0.7;;
51226;SDS011;42714;48.260;10.980;2023-05-10T10:58:37;7.0;;;0.5;;
51226;SDS011;42714;48.260;10.980;2023-05-10T11:03:37;2.3;;;0.5;;
51226;SDS011;42714;48.260;10.980;2023-05-10T11:08:41;3.2;;;0.5;;
51226;SDS011;42714;48.260;10.980;2023-05-10T11:13:38;3.5;;;0.9;;
51226;SDS011;42714;48.260;10.980;2023-05-10T11:18:37;2.9;;;0.3;;
51226;SDS011;42714;48.260;10.980;2023-05-10T11:23:47;2.8;;;0.3;;
51226;SDS011;42714;48.260;10.980;2023-05-10T11:33:47;3.7;;;0.6;;
51226;SDS011;42714;48.260;10.980;2023-05-10T11:38:37;4.7;;;0.4;;
51226;SDS011;42714;48.260;10.980;2023-05-10T11:43:37;3.5;;;0.8;;
51226;SDS011;42714;48.260;10.980;2023-05-10T11:48:38;1.8;;;0.4;;
51226;SDS011;42714;48.260;10.980;2023-05-10T11:53:37;8.6;;;1.1;;
51226;SDS011;42714;48.260;10.980;2023-05-10T11:58:37;4.2;;;0.5;;
51226;SDS011;42714;48.260;10.980;2023-05-10T12:03:37;8.2;;;0.8;;
51226;SDS011;42714;48.260;10.980;2023-05-10T12:08:37;6.5;;;0.5;;
51226;SDS011;42714;48.260;10.980;2023-05-10T12:13:37;3.0;;;0.4;;
51226;SDS011;42714;48.260;10.980;2023-05-10T12:18:38;6.8;;;0.5;;
51226;SDS011;42714;48.260;10.980;2023-05-10T12:23:37;4.7;;;0.6;;
51226;SDS011;42714;48.260;10.980;2023-05-10T12:28:37;2.5;;;0.6;;
51226;SDS011;42714;48.260;10.980;2023-05-10T12:33:37;6.3;;;0.8;;
51226;SDS011;42714;48.260;10.980;2023-05-10T12:38:38;2.5;;;0.4;;
51226;SDS011;42714;48.260;10.980;2023-05-10T12:43:37;2.4;;;0.6;;
51226;SDS011;42714;48.260;10.980;2023-05-10T12:48:37;4.0;;;0.8;;
51226;SDS011;42714;48.260;10.980;2023-05-10T12:53:37;4.7;;;0.9;;
51226;SDS011;42714;48.260;10.980;2023-05-10T12:58:38;5.1;;;0.6;;
51226;SDS011;42714;48.260;10.980;2023-05-10T13:03:37;3.3;;;0.6;;
51226;SDS011;42714;48.260;10.980;2023-05-10T13:08:37;2.0;;;0.4;;
51226;SDS011;42714;48.260;10.980;2023-05-10T13:13:37;3.9;;;0.4;;
51226;SDS011;42714;48.260;10.980;2023-05-10T13:18:37;5.7;;;0.4;;
51226;SDS011;42714;48.260;10.980;2023-05-10T13:23:37;2.4;;;0.4;;
51226;SDS011;42714;48.260;10.980;2023-05-10T13:28:37;2.8;;;0.3;;
51226;SDS011;42714;48.260;10.980;2023-05-10T13:33:37;2.8;;;0.5;;
51226;SDS011;42714;48.260;10.980;2023-05-10T13:38:37;1.9;;;0.4;;
51226;SDS011;42714;48.260;10.980;2023-05-10T13:43:37;1.5;;;0.3;;
51226;SDS011;42714;48.260;10.980;2023-05-10T13:48:37;2.5;;;0.4;;
51226;SDS011;42714;48.260;10.980;2023-05-10T13:53:37;3.9;;;0.4;;
51226;SDS011;42714;48.260;10.980;2023-05-10T14:03:37;5.8;;;0.8;;
51226;SDS011;42714;48.260;10.980;2023-05-10T14:08:37;3.2;;;0.8;;
51226;SDS011;42714;48.260;10.980;2023-05-10T14:13:37;5.4;;;1.3;;
51226;SDS011;42714;48.260;10.980;2023-05-10T14:18:37;5.2;;;1.2;;
51226;SDS011;42714;48.260;10.980;2023-05-10T14:23:37;9.7;;;1.4;;
51226;SDS011;42714;48.260;10.980;2023-05-10T14:28:37;3.8;;;0.7;;
51226;SDS011;42714;48.260;10.980;2023-05-10T14:33:37;3.2;;;0.4;;
51226;SDS011;42714;48.260;10.980;2023-05-10T14:38:37;2.6;;;0.5;;
51226;SDS011;42714;48.260;10.980;2023-05-10T14:43:37;6.1;;;0.5;;
51226;SDS011;42714;48.260;10.980;2023-05-10T14:48:37;7.2;;;0.8;;
51226;SDS011;42714;48.260;10.980;2023-05-10T14:53:37;6.1;;;0.7;;
51226;SDS011;42714;48.260;10.980;2023-05-10T14:58:37;4.1;;;0.8;;
51226;SDS011;42714;48.260;10.980;2023-05-10T15:03:37;6.6;;;1.0;;
51226;SDS011;42714;48.260;10.980;2023-05-10T15:08:37;5.6;;;1.2;;
51226;SDS011;42714;48.260;10.980;2023-05-10T15:13:37;3.6;;;1.2;;
51226;SDS011;42714;48.260;10.980;2023-05-10T15:18:37;5.9;;;1.2;;
51226;SDS011;42714;48.260;10.980;2023-05-10T15:23:37;6.5;;;1.5;;
51226;SDS011;42714;48.260;10.980;2023-05-10T15:28:37;11.6;;;2.7;;
51226;SDS011;42714;48.260;10.980;2023-05-10T15:33:37;11.7;;;2.9;;
51226;SDS011;42714;48.260;10.980;2023-05-10T15:38:37;6.0;;;2.3;;
51226;SDS011;42714;48.260;10.980;2023-05-10T15:43:37;10.1;;;1.9;;
51226;SDS011;42714;48.260;10.980;2023-05-10T15:48:37;5.3;;;1.7;;
51226;SDS011;42714;48.260;10.980;2023-05-10T15:53:37;3.7;;;0.9;;
51226;SDS011;42714;48.260;10.980;2023-05-10T15:58:37;4.1;;;1.2;;
51226;SDS011;42714;48.260;10.980;2023-05-10T16:03:37;7.1;;;1.2;;
51226;SDS011;42714;48.260;10.980;2023-05-10T16:08:37;3.6;;;1.2;;
51226;SDS011;42714;48.260;10.980;2023-05-10T16:13:37;5.2;;;1.1;;
51226;SDS011;42714;48.260;10.980;2023-05-10T16:18:37;6.2;;;1.1;;
51226;SDS011;42714;48.260;10.980;2023-05-10T16:23:37;6.2;;;2.0;;
51226;SDS011;42714;48.260;10.980;2023-05-10T16:28:37;5.5;;;1.6;;
51226;SDS011;42714;48.260;10.980;2023-05-10T16:33:37;8.6;;;1.4;;
51226;SDS011;42714;48.260;10.980;2023-05-10T16:38:37;5.9;;;1.4;;
51226;SDS011;42714;48.260;10.980;2023-05-10T16:43:37;3.7;;;1.2;;
51226;SDS011;42714;48.260;10.980;2023-05-10T16:48:37;8.5;;;1.4;;
51226;SDS011;42714;48.260;10.980;2023-05-10T16:53:37;7.0;;;1.7;;
51226;SDS011;42714;48.260;10.980;2023-05-10T16:58:37;5.4;;;1.5;;
51226;SDS011;42714;48.260;10.980;2023-05-10T17:03:37;4.6;;;1.6;;
51226;SDS011;42714;48.260;10.980;2023-05-10T17:08:37;6.3;;;1.5;;
51226;SDS011;42714;48.260;10.980;2023-05-10T17:13:37;3.8;;;1.1;;
51226;SDS011;42714;48.260;10.980;2023-05-10T17:18:37;7.4;;;1.3;;
51226;SDS011;42714;48.260;10.980;2023-05-10T17:23:37;4.0;;;1.1;;
51226;SDS011;42714;48.260;10.980;2023-05-10T17:28:37;7.5;;;1.7;;
51226;SDS011;42714;48.260;10.980;2023-05-10T17:33:37;5.5;;;1.6;;
51226;SDS011;42714;48.260;10.980;2023-05-10T17:38:37;4.5;;;1.1;;
51226;SDS011;42714;48.260;10.980;2023-05-10T17:43:37;5.1;;;1.4;;
51226;SDS011;42714;48.260;10.980;2023-05-10T17:48:37;6.6;;;1.7;;
51226;SDS011;42714;48.260;10.980;2023-05-10T17:53:38;8.8;;;3.7;;
51226;SDS011;42714;48.260;10.980;2023-05-10T17:58:37;6.4;;;1.9;;
51226;SDS011;42714;48.260;10.980;2023-05-10T18:03:37;8.4;;;2.2;;
51226;SDS011;42714;48.260;10.980;2023-05-10T18:08:37;11.5;;;3.7;;
51226;SDS011;42714;48.260;10.980;2023-05-10T18:13:37;5.7;;;1.6;;
51226;SDS011;42714;48.260;10.980;2023-05-10T18:18:37;19.8;;;9.5;;
51226;SDS011;42714;48.260;10.980;2023-05-10T18:23:37;5.8;;;2.6;;
51226;SDS011;42714;48.260;10.980;2023-05-10T18:28:37;7.3;;;2.3;;
51226;SDS011;42714;48.260;10.980;2023-05-10T18:33:37;6.4;;;1.9;;
51226;SDS011;42714;48.260;10.980;2023-05-10T18:38:37;5.4;;;1.7;;
51226;SDS011;42714;48.260;10.980;2023-05-10T18:43:37;7.2;;;2.3;;
51226;SDS011;42714;48.260;10.980;2023-05-10T18:48:37;8.1;;;2.7;;
51226;SDS011;42714;48.260;10.980;2023-05-10T18:53:37;6.8;;;2.2;;
51226;SDS011;42714;48.260;10.980;2023-05-10T18:58:37;9.1;;;3.1;;
51226;SDS011;42714;48.260;10.980;2023-05-10T19:03:37;6.7;;;2.2;;
51226;SDS011;42714;48.260;10.980;2023-05-10T19:08:37;6.4;;;1.6;;
51226;SDS011;42714;48.260;10.980;2023-05-10T19:13:37;6.5;;;2.1;;
51226;SDS011;42714;48.260;10.980;2023-05-10T19:18:37;7.0;;;3.1;;
51226;SDS011;42714;48.260;10.980;2023-05-10T19:23:37;10.5;;;3.2;;
51226;SDS011;42714;48.260;10.980;2023-05-10T19:28:37;10.6;;;3.6;;
51226;SDS011;42714;48.260;10.980;2023-05-10T19:33:37;10.1;;;3.2;;
51226;SDS011;42714;48.260;10.980;2023-05-10T19:38:37;7.4;;;3.3;;
51226;SDS011;42714;48.260;10.980;2023-05-10T19:43:37;9.5;;;2.7;;
51226;SDS011;42714;48.260;10.980;2023-05-10T19:48:37;8.8;;;3.1;;
51226;SDS011;42714;48.260;10.980;2023-05-10T19:53:37;7.8;;;2.9;;
51226;SDS011;42714;48.260;10.980;2023-05-10T19:58:37;8.8;;;3.4;;
51226;SDS011;42714;48.260;10.980;2023-05-10T20:03:37;11.2;;;3.8;;
51226;SDS011;42714;48.260;10.980;2023-05-10T20:08:37;8.7;;;4.0;;
51226;SDS011;42714;48.260;10.980;2023-05-10T20:13:37;10.1;;;4.2;;
51226;SDS011;42714;48.260;10.980;2023-05-10T20:18:37;11.3;;;3.5;;
51226;SDS011;42714;48.260;10.980;2023-05-10T20:23:37;9.9;;;3.9;;
51226;SDS011;42714;48.260;10.980;2023-05-10T20:28:37;6.8;;;2.8;;
51226;SDS011;42714;48.260;10.980;2023-05-10T20:33:37;6.7;;;2.9;;
51226;SDS011;42714;48.260;10.980;2023-05-10T20:38:37;6.3;;;2.6;;
51226;SDS011;42714;48.260;10.980;2023-05-10T20:43:37;9.8;;;3.7;;
51226;SDS011;42714;48.260;10.980;2023-05-10T20:48:37;6.3;;;1.7;;
51226;SDS011;42714;48.260;10.980;2023-05-10T20:53:37;10.2;;;2.9;;
51226;SDS011;42714;48.260;10.980;2023-05-10T20:58:37;6.5;;;2.9;;
51226;SDS011;42714;48.260;10.980;2023-05-10T21:03:37;7.3;;;2.9;;
51226;SDS011;42714;48.260;10.980;2023-05-10T21:08:37;10.4;;;3.3;;
51226;SDS011;42714;48.260;10.980;2023-05-10T21:13:37;9.5;;;3.3;;
51226;SDS011;42714;48.260;10.980;2023-05-10T21:18:37;9.3;;;3.7;;
51226;SDS011;42714;48.260;10.980;2023-05-10T21:23:37;10.0;;;3.6;;
51226;SDS011;42714;48.260;10.980;2023-05-10T21:28:37;5.6;;;1.8;;
51226;SDS011;42714;48.260;10.980;2023-05-10T21:33:37;5.2;;;2.3;;
51226;SDS011;42714;48.260;10.980;2023-05-10T21:38:37;12.8;;;4.2;;
51226;SDS011;42714;48.260;10.980;2023-05-10T21:43:37;9.2;;;3.4;;
51226;SDS011;42714;48.260;10.980;2023-05-10T21:48:37;10.6;;;3.0;;
51226;SDS011;42714;48.260;10.980;2023-05-10T21:53:37;7.6;;;2.9;;
51226;SDS011;42714;48.260;10.980;2023-05-10T21:58:37;8.4;;;3.6;;
51226;SDS011;42714;48.260;10.980;2023-05-10T22:03:37;11.6;;;3.9;;
51226;SDS011;42714;48.260;10.980;2023-05-10T22:08:37;9.0;;;3.2;;
51226;SDS011;42714;48.260;10.980;2023-05-10T22:13:37;8.1;;;3.1;;
51226;SDS011;42714;48.260;10.980;2023-05-10T22:18:37;7.8;;;2.5;;
51226;SDS011;42714;48.260;10.980;2023-05-10T22:23:37;10.3;;;3.8;;
51226;SDS011;42714;48.260;10.980;2023-05-10T22:28:37;11.4;;;4.0;;
51226;SDS011;42714;48.260;10.980;2023-05-10T22:33:37;12.5;;;4.3;;
51226;SDS011;42714;48.260;10.980;2023-05-10T22:38:37;9.8;;;4.1;;
51226;SDS011;42714;48.260;10.980;2023-05-10T22:43:37;9.5;;;4.0;;
51226;SDS011;42714;48.260;10.980;2023-05-10T22:48:37;12.7;;;4.5;;
51226;SDS011;42714;48.260;10.980;2023-05-10T22:53:37;7.1;;;2.9;;
51226;SDS011;42714;48.260;10.980;2023-05-10T22:58:37;7.8;;;3.8;;
51226;SDS011;42714;48.260;10.980;2023-05-10T23:03:37;11.3;;;3.8;;
51226;SDS011;42714;48.260;10.980;2023-05-10T23:08:37;25.1;;;5.4;;
51226;SDS011;42714;48.260;10.980;2023-05-10T23:13:37;12.2;;;4.5;;
51226;SDS011;42714;48.260;10.980;2023-05-10T23:18:37;11.7;;;3.8;;
51226;SDS011;42714;48.260;10.980;2023-05-10T23:23:37;7.3;;;3.2;;
51226;SDS011;42714;48.260;10.980;2023-05-10T23:28:37;10.2;;;3.8;;
51226;SDS011;42714;48.260;10.980;2023-05-10T23:33:37;12.8;;;4.5;;
51226;SDS011;42714;48.260;10.980;2023-05-10T23:38:37;8.3;;;3.8;;
51226;SDS011;42714;48.260;10.980;2023-05-10T23:43:37;7.8;;;3.5;;
51226;SDS011;42714;48.260;10.980;2023-05-10T23:48:37;11.1;;;4.3;;
51226;SDS011;42714;48.260;10.980;2023-05-10T23:53:37;12.3;;;4.4;;
51226;SDS011;42714;48.260;10.980;2023-05-10T23:58:37;12.9;;;4.8;;
